Time;durP1;ratioP1;P1;durP2;ratioP2;P2;SDS_P1;SDS_P2;PMS_P1;PMS_P2;Temp;Humidity;BMP_temperature;BMP_pressure;BME280_temperature;BME280_humidity;BME280_pressure;Samples;Min_cycle;Max_cycle;Signal;HPM_P1;HPM_P2
2024/01/15 00:01:51;;;;;;;;;;;;;;;-2.95;100.00;95455.44;5047607;28;20232;-75
2024/01/15 00:04:17;;;;;;;;;;;;;;;-2.97;100.00;95449.66;5030494;28;19935;-74
2024/01/15 00:06:43;;;;;;;;;;;;;;;-2.98;100.00;95454.94;5065462;28;20108;-75
2024/01/15 00:09:09;;;;;;;;;;;;;;;-2.97;100.00;95459.13;5046833;28;19951;-76
2024/01/15 00:11:35;;;;;;;;;;;;;;;-2.96;100.00;95447.88;5064583;28;19935;-79
2024/01/15 00:14:03;;;;;;;;;;;;;;;-2.95;100.00;95460.56;5046706;28;20216;-74
2024/01/15 00:16:28;;;;;;;;;;;;;;;-2.94;100.00;95453.66;5064176;28;20098;-74
2024/01/15 00:18:54;;;;;;;;;;;;;;;-2.92;100.00;95456.88;5047602;28;19989;-73
2024/01/15 00:21:20;;;;;;;;;;;;;;;-2.92;100.00;95447.44;5046488;28;20228;-73
2024/01/15 00:23:46;;;;;;;;;;;;;;;-2.88;100.00;95458.97;5047180;28;19927;-74
2024/01/15 00:26:12;;;;;;;;;;;;;;;-2.86;100.00;95454.50;5047175;28;20103;-74
2024/01/15 00:28:38;;;;;;;;;;;;;;;-2.84;100.00;95454.31;5046429;28;19937;-75
2024/01/15 00:31:04;;;;;;;;;;;;;;;-2.83;100.00;95447.41;5047110;28;19941;-75
2024/01/15 00:33:30;;;;;;;;;;;;;;;-2.81;100.00;95451.44;5029769;28;19956;-74
2024/01/15 00:35:56;;;;;;;;;;;;;;;-2.82;100.00;95437.00;5029827;28;19943;-74
2024/01/15 00:38:22;;;;;;;;;;;;;;;-2.82;100.00;95439.56;5047017;28;19947;-75
2024/01/15 00:40:48;;;;;;;;;;;;;;;-2.83;100.00;95437.97;5047093;28;20210;-75
2024/01/15 00:43:14;;;;;;;;;;;;;;;-2.82;100.00;95425.94;5046341;28;19940;-75
2024/01/15 00:45:40;;;;;;;;;;;;;;;-2.79;100.00;95435.88;5030606;28;19942;-74
2024/01/15 00:48:06;;;;;;;;;;;;;;;-2.79;100.00;95433.31;5046353;28;19946;-75
2024/01/15 00:50:32;;;;;;;;;;;;;;;-2.75;100.00;95442.28;5046318;28;19937;-79
2024/01/15 00:52:58;;;;;;;;;;;;;;;-2.72;100.00;95429.94;5063846;28;20021;-79
2024/01/15 00:55:24;;;;;;;;;;;;;;;-2.68;100.00;95427.88;5030384;28;19947;-79
2024/01/15 00:57:50;;;;;;;;;;;;;;;-2.71;100.00;95425.63;5030351;28;19948;-79
2024/01/15 01:00:16;;;;;;;;;;;;;;;-2.71;100.00;95429.00;5046766;28;20004;-79
2024/01/15 01:02:42;;;;;;;;;;;;;;;-2.72;100.00;95432.50;5064359;28;19938;-79
2024/01/15 01:05:07;;;;;;;;;;;;;;;-2.71;100.00;95431.56;5046067;28;19954;-74
2024/01/15 01:07:33;;;;;;;;;;;;;;;-2.71;100.00;95435.88;5046090;28;19937;-76
2024/01/15 01:09:59;;;;;;;;;;;;;;;-2.67;100.00;95438.00;5030203;28;19970;-74
2024/01/15 01:12:25;;;;;;;;;;;;;;;-2.67;100.00;95429.47;5029490;28;19958;-74
2024/01/15 01:14:51;;;;;;;;;;;;;;;-2.66;100.00;95431.88;5064164;28;19933;-74
2024/01/15 01:17:17;;;;;;;;;;;;;;;-2.67;100.00;95429.47;5045799;28;19964;-74
2024/01/15 01:19:43;;;;;;;;;;;;;;;-2.68;100.00;95430.44;5045933;28;19940;-74
2024/01/15 01:22:09;;;;;;;;;;;;;;;-2.66;100.00;95442.16;5030099;28;19944;-75
2024/01/15 01:24:34;;;;;;;;;;;;;;;-2.65;100.00;95430.09;5045790;28;19979;-75
2024/01/15 01:27:00;;;;;;;;;;;;;;;-2.64;100.00;95430.94;5030120;28;19935;-77
2024/01/15 01:29:26;;;;;;;;;;;;;;;-2.62;100.00;95439.28;5034176;28;19946;-79
2024/01/15 01:31:52;;;;;;;;;;;;;;;-2.61;100.00;95433.97;5068110;28;20205;-78
2024/01/15 01:34:18;;;;;;;;;;;;;;;-2.59;100.00;95426.91;5050062;28;19988;-77
2024/01/15 01:36:44;;;;;;;;;;;;;;;-2.60;100.00;95427.88;5068282;28;19937;-78
2024/01/15 01:39:10;;;;;;;;;;;;;;;-2.61;100.00;95421.13;5049673;28;20298;-78
2024/01/15 01:41:36;;;;;;;;;;;;;;;-2.60;100.00;95425.31;5067688;28;19942;-77
2024/01/15 01:44:02;;;;;;;;;;;;;;;-2.59;100.00;95415.84;5066409;28;19942;-78
2024/01/15 01:46:28;;;;;;;;;;;;;;;-2.60;100.00;95421.91;5049524;28;19978;-75
2024/01/15 01:48:55;;;;;;;;;;;;;;;-2.61;100.00;95423.69;5067837;28;19956;-75
2024/01/15 01:51:22;;;;;;;;;;;;;;;-2.61;100.00;95416.00;5067997;28;20083;-75
2024/01/15 01:53:48;;;;;;;;;;;;;;;-2.61;100.00;95420.31;5049476;28;19953;-76
2024/01/15 01:56:14;;;;;;;;;;;;;;;-2.63;100.00;95414.56;5067161;28;19937;-75
2024/01/15 01:58:40;;;;;;;;;;;;;;;-2.66;100.00;95418.25;5050100;28;19991;-74
2024/01/15 02:01:07;;;;;;;;;;;;;;;-2.68;100.00;95417.59;5067873;28;20227;-79
2024/01/15 02:03:33;;;;;;;;;;;;;;;-2.69;100.00;95419.38;5067519;28;19987;-74
2024/01/15 02:06:01;;;;;;;;;;;;;;;-2.69;100.00;95413.41;5032597;28;20225;-74
2024/01/15 02:08:27;;;;;;;;;;;;;;;-2.71;100.00;95418.75;5032465;28;19960;-75
2024/01/15 02:10:53;;;;;;;;;;;;;;;-2.74;100.00;95413.13;5033330;28;20002;-75
2024/01/15 02:13:20;;;;;;;;;;;;;;;-2.75;100.00;95411.50;5033234;28;20008;-75
2024/01/15 02:15:46;;;;;;;;;;;;;;;-2.76;100.00;95408.13;5048970;28;20004;-74
2024/01/15 02:18:12;;;;;;;;;;;;;;;-2.76;100.00;95407.34;5048713;28;19974;-74
2024/01/15 02:20:37;;;;;;;;;;;;;;;-2.75;100.00;95406.38;5033206;28;19988;-75
2024/01/15 02:23:03;;;;;;;;;;;;;;;-2.79;100.00;95397.38;5048959;28;20238;-78
2024/01/15 02:25:29;;;;;;;;;;;;;;;-2.78;100.00;95399.00;5048755;28;19940;-78
2024/01/15 02:27:55;;;;;;;;;;;;;;;-2.80;100.00;95404.28;5048246;28;19940;-78
2024/01/15 02:30:22;;;;;;;;;;;;;;;-2.82;100.00;95400.28;5049374;28;19949;-78
2024/01/15 02:32:48;;;;;;;;;;;;;;;-2.83;100.00;95399.50;5066360;28;20260;-79
2024/01/15 02:35:14;;;;;;;;;;;;;;;-2.86;100.00;95392.94;5066560;28;20001;-78
2024/01/15 02:37:39;;;;;;;;;;;;;;;-2.86;100.00;95398.06;5049327;28;19984;-77
2024/01/15 02:40:06;;;;;;;;;;;;;;;-2.87;100.00;95391.31;5047822;28;19940;-75
2024/01/15 02:42:31;;;;;;;;;;;;;;;-2.89;100.00;95395.00;5049164;28;20227;-75
2024/01/15 02:44:57;;;;;;;;;;;;;;;-2.88;100.00;95399.16;5049094;28;19941;-75
2024/01/15 02:47:23;;;;;;;;;;;;;;;-2.87;100.00;95390.50;5049096;28;19945;-75
2024/01/15 02:49:50;;;;;;;;;;;;;;;-2.89;100.00;95390.66;5066471;28;19935;-76
2024/01/15 02:52:16;;;;;;;;;;;;;;;-2.90;100.00;95388.25;5048100;28;20005;-75
2024/01/15 02:54:42;;;;;;;;;;;;;;;-2.91;100.00;95392.59;5048817;28;19935;-75
2024/01/15 02:57:07;;;;;;;;;;;;;;;-2.92;100.00;95387.59;5032564;28;19952;-74
2024/01/15 02:59:33;;;;;;;;;;;;;;;-2.92;100.00;95379.91;5066732;28;19942;-74
2024/01/15 03:01:59;;;;;;;;;;;;;;;-2.92;100.00;95382.47;5048113;28;20003;-75
2024/01/15 03:04:25;;;;;;;;;;;;;;;-2.92;100.00;95385.88;5032391;28;19944;-75
2024/01/15 03:06:51;;;;;;;;;;;;;;;-2.91;100.00;95395.16;5047983;28;19970;-75
2024/01/15 03:09:17;;;;;;;;;;;;;;;-2.88;100.00;95401.72;5048548;28;20271;-75
2024/01/15 03:11:43;;;;;;;;;;;;;;;-2.84;100.00;95417.59;5065726;28;19969;-75
2024/01/15 03:14:08;;;;;;;;;;;;;;;-2.81;100.00;95418.09;5048511;28;20033;-76
2024/01/15 03:16:34;;;;;;;;;;;;;;;-2.78;100.00;95420.31;5065392;28;20255;-74
2024/01/15 03:19:01;;;;;;;;;;;;;;;-2.73;100.00;95428.34;5048743;28;19949;-73
2024/01/15 03:21:26;;;;;;;;;;;;;;;-2.69;100.00;95431.38;5065459;28;19935;-73
2024/01/15 03:23:52;;;;;;;;;;;;;;;-2.67;100.00;95425.16;5047668;28;19951;-73
2024/01/15 03:26:18;;;;;;;;;;;;;;;-2.63;100.00;95424.81;5065440;28;19940;-73
2024/01/15 03:28:44;;;;;;;;;;;;;;;-2.60;100.00;95424.47;5065368;28;20238;-72
2024/01/15 03:31:10;;;;;;;;;;;;;;;-2.58;100.00;95414.84;5066123;28;19990;-72
2024/01/15 03:33:35;;;;;;;;;;;;;;;-2.55;100.00;95412.78;5047342;28;19962;-73
2024/01/15 03:36:01;;;;;;;;;;;;;;;-2.52;100.00;95422.75;5031778;28;19946;-74
2024/01/15 03:38:28;;;;;;;;;;;;;;;-2.48;100.00;95420.63;5030821;28;19943;-74
2024/01/15 03:40:54;;;;;;;;;;;;;;;-2.47;100.00;95411.97;5048171;28;20126;-73
2024/01/15 03:43:20;;;;;;;;;;;;;;;-2.44;100.00;95421.91;5065085;28;19935;-73
2024/01/15 03:45:46;;;;;;;;;;;;;;;-2.42;100.00;95414.84;5047540;28;20217;-74
2024/01/15 03:48:11;;;;;;;;;;;;;;;-2.41;100.00;95413.91;5031535;28;19946;-74
2024/01/15 03:50:37;;;;;;;;;;;;;;;-2.39;100.00;95411.16;5047188;28;19935;-76
2024/01/15 03:53:03;;;;;;;;;;;;;;;-2.38;100.00;95411.00;5047139;28;19974;-74
2024/01/15 03:55:29;;;;;;;;;;;;;;;-2.36;100.00;95415.97;5047705;28;20215;-74
2024/01/15 03:57:55;;;;;;;;;;;;;;;-2.36;100.00;95414.19;5047073;28;19970;-74
2024/01/15 04:00:21;;;;;;;;;;;;;;;-2.34;100.00;95416.63;5047520;28;19987;-74
2024/01/15 04:02:46;;;;;;;;;;;;;;;-2.34;100.00;95414.84;5064707;28;19941;-73
2024/01/15 04:05:12;;;;;;;;;;;;;;;-2.33;100.00;95408.75;5046951;28;19935;-74
2024/01/15 04:07:38;;;;;;;;;;;;;;;-2.32;100.00;95415.47;5047538;28;19944;-73
2024/01/15 04:10:04;;;;;;;;;;;;;;;-2.31;100.00;95414.53;5064597;28;19939;-79
2024/01/15 04:12:30;;;;;;;;;;;;;;;-2.29;100.00;95406.66;5030329;28;20231;-72
2024/01/15 04:14:56;;;;;;;;;;;;;;;-2.28;100.00;95406.50;5064426;28;19954;-73
2024/01/15 04:17:22;;;;;;;;;;;;;;;-2.27;100.00;95397.84;5064241;28;19964;-73
2024/01/15 04:19:48;;;;;;;;;;;;;;;-2.26;100.00;95398.63;5064906;28;20006;-74
2024/01/15 04:22:14;;;;;;;;;;;;;;;-2.25;100.00;95398.47;5064824;28;19933;-72
2024/01/15 04:24:40;;;;;;;;;;;;;;;-2.25;100.00;95403.59;5064376;28;19935;-74
2024/01/15 04:27:07;;;;;;;;;;;;;;;-2.25;100.00;95402.78;5046629;28;19934;-74
2024/01/15 04:29:32;;;;;;;;;;;;;;;-2.24;100.00;95406.97;5064964;28;20003;-78
2024/01/15 04:31:58;;;;;;;;;;;;;;;-2.23;100.00;95400.06;5003268;28;19976;-72
2024/01/15 04:34:24;;;;;;;;;;;;;;;-2.23;100.00;95395.72;5003476;28;19971;-73
2024/01/15 04:36:50;;;;;;;;;;;;;;;-2.19;100.00;95391.06;5003299;28;20181;-74
2024/01/15 04:39:16;;;;;;;;;;;;;;;-2.21;100.00;95386.09;4986630;28;20007;-73
2024/01/15 04:41:41;;;;;;;;;;;;;;;-2.21;100.00;95396.34;5003604;28;19933;-73
2024/01/15 04:44:07;;;;;;;;;;;;;;;-2.18;100.00;95398.63;5003427;28;20033;-73
2024/01/15 04:46:33;;;;;;;;;;;;;;;-2.17;100.00;95389.94;4986679;28;19944;-75
2024/01/15 04:48:59;;;;;;;;;;;;;;;-2.15;100.00;95374.38;4987267;28;19940;-73
2024/01/15 04:51:25;;;;;;;;;;;;;;;-2.15;100.00;95382.06;4986486;28;19929;-73
2024/01/15 04:53:51;;;;;;;;;;;;;;;-2.15;100.00;95379.50;4986537;28;19952;-73
2024/01/15 04:56:16;;;;;;;;;;;;;;;-2.15;100.00;95376.94;4987155;28;20006;-73
2024/01/15 04:58:42;;;;;;;;;;;;;;;-2.15;100.00;95374.38;4987167;28;19936;-73
2024/01/15 05:01:08;;;;;;;;;;;;;;;-2.16;100.00;95371.00;4970237;28;19948;-72
2024/01/15 05:03:34;;;;;;;;;;;;;;;-2.17;100.00;95374.53;5047882;28;19948;-74
2024/01/15 05:06:00;;;;;;;;;;;;;;;-2.14;100.00;95384.47;5045968;28;19945;-73
2024/01/15 05:08:26;;;;;;;;;;;;;;;-2.14;100.00;95368.25;5063676;28;19948;-78
2024/01/15 05:10:51;;;;;;;;;;;;;;;-2.12;100.00;95368.88;5046161;28;20226;-77
2024/01/15 05:13:17;;;;;;;;;;;;;;;-2.09;100.00;95374.50;5046543;28;19962;-77
2024/01/15 05:15:43;;;;;;;;;;;;;;;-2.05;100.00;95380.91;5045891;28;19947;-77
2024/01/15 05:18:09;;;;;;;;;;;;;;;-2.03;100.00;95377.38;5045958;28;19991;-77
2024/01/15 05:20:35;;;;;;;;;;;;;;;-2.01;100.00;95378.03;5045779;28;20222;-78
2024/01/15 05:23:01;;;;;;;;;;;;;;;-2.02;100.00;95361.78;5045883;28;19948;-77
2024/01/15 05:25:26;;;;;;;;;;;;;;;-2.02;100.00;95372.06;5045730;28;19952;-77
2024/01/15 05:27:52;;;;;;;;;;;;;;;-2.02;100.00;95368.69;5030078;28;19939;-76
2024/01/15 05:30:18;;;;;;;;;;;;;;;-2.02;100.00;95373.84;5045830;28;19943;-76
2024/01/15 05:32:44;;;;;;;;;;;;;;;-2.02;100.00;95364.34;5045820;28;20017;-76
2024/01/15 05:35:10;;;;;;;;;;;;;;;-2.05;100.00;95354.44;5046425;28;19966;-77
2024/01/15 05:37:36;;;;;;;;;;;;;;;-2.07;100.00;95362.28;5045732;28;19937;-77
2024/01/15 05:40:04;;;;;;;;;;;;;;;-2.07;100.00;95359.72;5029883;28;19943;-77
2024/01/15 05:42:31;;;;;;;;;;;;;;;-2.08;100.00;95360.69;5045532;28;19951;-74
2024/01/15 05:44:59;;;;;;;;;;;;;;;-2.08;100.00;95365.84;5029219;28;19946;-74
2024/01/15 05:47:25;;;;;;;;;;;;;;;-2.00;100.00;95352.16;5064131;28;20114;-74
2024/01/15 05:49:51;;;;;;;;;;;;;;;-1.97;100.00;95349.25;5029896;28;19941;-75
2024/01/15 05:52:17;;;;;;;;;;;;;;;-1.96;100.00;95353.41;5063397;28;19933;-75
2024/01/15 05:54:43;;;;;;;;;;;;;;;-1.99;100.00;95346.06;5063798;28;19944;-74
2024/01/15 05:57:08;;;;;;;;;;;;;;;-2.00;100.00;95362.41;5064163;28;20265;-74
2024/01/15 05:59:36;;;;;;;;;;;;;;;-2.02;100.00;95361.00;5063311;28;19958;-78
2024/01/15 06:02:01;;;;;;;;;;;;;;;-2.06;100.00;95361.34;5063828;28;19947;-73
2024/01/15 06:04:27;;;;;;;;;;;;;;;-2.09;100.00;95369.34;5046418;28;19938;-73
2024/01/15 06:06:53;;;;;;;;;;;;;;;-2.10;100.00;95365.19;5045577;28;19974;-74
2024/01/15 06:09:19;;;;;;;;;;;;;;;-2.11;100.00;95373.88;5045525;28;19975;-73
2024/01/15 06:11:45;;;;;;;;;;;;;;;-2.11;100.00;95363.59;5063237;28;19944;-74
2024/01/15 06:14:11;;;;;;;;;;;;;;;-2.13;100.00;95357.81;5063794;28;19944;-73
2024/01/15 06:16:36;;;;;;;;;;;;;;;-2.12;100.00;95356.03;5032380;28;19968;-73
2024/01/15 06:19:02;;;;;;;;;;;;;;;-2.14;100.00;95358.78;5066842;28;20014;-77
2024/01/15 06:21:28;;;;;;;;;;;;;;;-2.15;100.00;95352.03;5032485;28;20236;-77
2024/01/15 06:23:56;;;;;;;;;;;;;;;-2.14;100.00;95352.84;5067497;28;19983;-78
2024/01/15 06:26:22;;;;;;;;;;;;;;;-2.12;100.00;95351.72;5032340;28;20217;-77
2024/01/15 06:28:48;;;;;;;;;;;;;;;-2.10;100.00;95349.78;5049551;28;19951;-77
2024/01/15 06:31:14;;;;;;;;;;;;;;;-2.09;100.00;95341.09;5049667;28;20124;-77
2024/01/15 06:33:40;;;;;;;;;;;;;;;-2.10;100.00;95341.25;5048717;28;19958;-78
2024/01/15 06:36:06;;;;;;;;;;;;;;;-2.11;100.00;95340.47;5032990;28;20007;-73
2024/01/15 06:38:32;;;;;;;;;;;;;;;-2.10;100.00;95338.69;5049289;28;20007;-80
2024/01/15 06:40:58;;;;;;;;;;;;;;;-2.12;100.00;95332.94;5032837;28;19938;-76
2024/01/15 06:43:23;;;;;;;;;;;;;;;-2.12;100.00;95330.34;5033114;28;19949;-74
2024/01/15 06:45:49;;;;;;;;;;;;;;;-2.15;100.00;95323.00;5032077;28;19984;-76
2024/01/15 06:48:16;;;;;;;;;;;;;;;-2.14;100.00;95322.00;5032643;28;20279;-76
2024/01/15 06:50:42;;;;;;;;;;;;;;;-2.14;100.00;95314.31;5048391;28;19949;-77
2024/01/15 06:53:08;;;;;;;;;;;;;;;-2.14;100.00;95307.44;5032420;28;19940;-77
2024/01/15 06:55:34;;;;;;;;;;;;;;;-2.15;100.00;95303.25;5049079;28;19951;-74
2024/01/15 06:58:00;;;;;;;;;;;;;;;-2.16;100.00;95298.25;5066077;28;19946;-77
2024/01/15 07:00:27;;;;;;;;;;;;;;;-2.18;100.00;95310.47;5032466;28;19983;-77
2024/01/15 07:02:53;;;;;;;;;;;;;;;-2.20;100.00;95313.22;5047640;28;20228;-77
2024/01/15 07:05:20;;;;;;;;;;;;;;;-2.19;100.00;95306.31;5048059;28;20147;-77
2024/01/15 07:07:47;;;;;;;;;;;;;;;-2.17;100.00;95302.59;5048086;28;19934;-77
2024/01/15 07:10:13;;;;;;;;;;;;;;;-2.15;100.00;95298.09;5048729;28;19943;-77
2024/01/15 07:12:41;;;;;;;;;;;;;;;-2.14;100.00;95301.47;5048867;28;19941;-75
2024/01/15 07:15:08;;;;;;;;;;;;;;;-2.11;100.00;95306.28;5031438;28;19972;-76
2024/01/15 07:17:34;;;;;;;;;;;;;;;-2.13;100.00;95296.19;5028177;28;19972;-75
2024/01/15 07:20:00;;;;;;;;;;;;;;;-2.13;100.00;95298.75;5028852;28;19945;-75
2024/01/15 07:22:25;;;;;;;;;;;;;;;-2.13;100.00;95297.94;5044492;28;19934;-75
2024/01/15 07:24:51;;;;;;;;;;;;;;;-2.13;100.00;95300.50;5044842;28;19943;-74
2024/01/15 07:27:17;;;;;;;;;;;;;;;-2.12;100.00;95296.97;5027809;28;20164;-75
2024/01/15 07:29:43;;;;;;;;;;;;;;;-2.11;100.00;95303.72;5046009;28;19945;-75
2024/01/15 07:32:09;;;;;;;;;;;;;;;-2.11;100.00;95299.38;5044920;28;19937;-73
2024/01/15 07:34:35;;;;;;;;;;;;;;;-2.09;100.00;95292.31;5046119;28;19991;-78
2024/01/15 07:37:01;;;;;;;;;;;;;;;-2.05;100.00;95303.06;5044807;28;20004;-78
2024/01/15 07:39:28;;;;;;;;;;;;;;;-2.03;100.00;95298.56;5044178;28;19939;-78
2024/01/15 07:41:54;;;;;;;;;;;;;;;-2.00;100.00;95300.78;5044233;28;19938;-78
2024/01/15 07:44:20;;;;;;;;;;;;;;;-1.97;100.00;95292.75;5044678;28;19956;-79
2024/01/15 07:46:46;;;;;;;;;;;;;;;-1.94;100.00;95287.25;5044760;28;20002;-78
2024/01/15 07:49:12;;;;;;;;;;;;;;;-1.93;100.00;95288.88;5045699;28;19943;-78
2024/01/15 07:51:40;;;;;;;;;;;;;;;-1.92;100.00;95294.81;5044706;28;20005;-74
2024/01/15 07:54:06;;;;;;;;;;;;;;;-1.92;100.00;95284.53;5028105;28;19955;-74
2024/01/15 07:56:32;;;;;;;;;;;;;;;-1.92;100.00;95285.31;5028055;28;19990;-73
2024/01/15 07:58:58;;;;;;;;;;;;;;;-1.89;100.00;95289.31;5043643;28;19941;-74
2024/01/15 08:01:24;;;;;;;;;;;;;;;-1.91;100.00;95281.78;5044885;28;19972;-74
2024/01/15 08:03:50;;;;;;;;;;;;;;;-1.88;100.00;95281.44;5027143;28;19993;-73
2024/01/15 08:06:16;;;;;;;;;;;;;;;-1.86;100.00;95281.28;5043719;28;19932;-74
2024/01/15 08:08:42;;;;;;;;;;;;;;;-1.83;100.00;95280.94;5043647;28;19948;-79
2024/01/15 08:11:08;;;;;;;;;;;;;;;-1.80;100.00;95275.47;5027875;28;19945;-73
2024/01/15 08:13:33;;;;;;;;;;;;;;;-1.68;100.00;95263.84;5045044;28;19938;-74
2024/01/15 08:15:59;;;;;;;;;;;;;;;-1.62;100.00;95254.63;5044188;28;19983;-74
2024/01/15 08:18:25;;;;;;;;;;;;;;;-1.62;100.00;95257.19;5062589;28;20010;-73
2024/01/15 08:20:52;;;;;;;;;;;;;;;-1.64;100.00;95252.25;5047586;28;19962;-73
2024/01/15 08:23:17;;;;;;;;;;;;;;;-1.63;100.00;95264.09;5064489;28;19935;-74
2024/01/15 08:25:43;;;;;;;;;;;;;;;-1.62;100.00;95270.03;5047259;28;19995;-73
2024/01/15 08:28:09;;;;;;;;;;;;;;;-1.60;100.00;95262.16;5064407;28;19932;-75
2024/01/15 08:30:35;;;;;;;;;;;;;;;-1.60;100.00;95260.38;5030046;28;19958;-75
2024/01/15 08:33:01;;;;;;;;;;;;;;;-1.59;100.00;95263.78;5064827;28;19938;-74
2024/01/15 08:35:26;;;;;;;;;;;;;;;-1.58;100.00;95262.78;5064097;28;19948;-74
2024/01/15 08:37:52;;;;;;;;;;;;;;;-1.58;100.00;95258.44;5063878;28;19943;-74
2024/01/15 08:40:18;;;;;;;;;;;;;;;-1.58;100.00;95255.88;5064953;28;20021;-75
2024/01/15 08:42:45;;;;;;;;;;;;;;;-1.56;100.00;95246.22;5064155;28;19940;-73
2024/01/15 08:45:11;;;;;;;;;;;;;;;-1.53;100.00;95253.59;5047058;28;19961;-74
2024/01/15 08:47:37;;;;;;;;;;;;;;;-1.52;100.00;95234.63;5064084;28;19942;-79
2024/01/15 08:50:04;;;;;;;;;;;;;;;-1.48;100.00;95232.53;5064509;28;19943;-78
2024/01/15 08:52:30;;;;;;;;;;;;;;;-1.44;100.00;95265.41;5030398;28;19930;-78
2024/01/15 08:54:59;;;;;;;;;;;;;;;-1.40;100.00;95265.88;5046132;28;19979;-78
2024/01/15 08:57:24;;;;;;;;;;;;;;;-1.35;100.00;95252.50;5046492;28;19941;-78
2024/01/15 08:59:51;;;;;;;;;;;;;;;-1.32;100.00;95259.88;5029748;28;19939;-78
2024/01/15 09:02:17;;;;;;;;;;;;;;;-1.31;100.00;95257.13;5046012;28;19942;-79
2024/01/15 09:04:42;;;;;;;;;;;;;;;-1.30;100.00;95252.78;5046467;28;19937;-73
2024/01/15 09:07:08;;;;;;;;;;;;;;;-1.27;100.00;95263.53;5063853;28;19941;-73
2024/01/15 09:09:34;;;;;;;;;;;;;;;-1.22;100.00;95247.56;5063071;28;19958;-73
2024/01/15 09:12:00;;;;;;;;;;;;;;;-1.21;100.00;95244.03;5029568;28;19941;-73
2024/01/15 09:14:27;;;;;;;;;;;;;;;-1.17;100.00;95244.50;5046796;28;19959;-73
2024/01/15 09:16:53;;;;;;;;;;;;;;;-1.16;100.00;95230.66;5029863;28;19966;-73
2024/01/15 09:19:19;;;;;;;;;;;;;;;-1.14;100.00;95233.84;5046660;28;19941;-73
2024/01/15 09:21:45;;;;;;;;;;;;;;;-1.13;100.00;95243.16;5046084;28;19936;-78
2024/01/15 09:24:11;;;;;;;;;;;;;;;-1.09;100.00;95250.34;5063986;28;19944;-78
2024/01/15 09:26:37;;;;;;;;;;;;;;;-1.03;100.00;95243.69;5046753;28;19936;-73
2024/01/15 09:29:03;;;;;;;;;;;;;;;-0.99;100.00;95233.88;5046000;28;19981;-73
2024/01/15 09:31:28;;;;;;;;;;;;;;;-0.94;100.00;95219.50;5045968;28;19938;-74
2024/01/15 09:34:00;;;;;;;;;;;;;;;-0.91;100.00;95214.00;5045716;28;20225;-73
2024/01/15 09:36:26;;;;;;;;;;;;;;;-0.86;100.00;95213.44;5046804;28;19935;-73
2024/01/15 09:38:52;;;;;;;;;;;;;;;-0.84;100.00;95201.22;5029800;28;19943;-73
2024/01/15 09:41:18;;;;;;;;;;;;;;;-0.82;100.00;95202.66;5046546;28;19941;-78
2024/01/15 09:43:45;;;;;;;;;;;;;;;-0.77;100.00;95193.59;5045866;28;19931;-73
2024/01/15 09:46:11;;;;;;;;;;;;;;;-0.76;100.00;95182.31;5046366;28;20028;-73
2024/01/15 09:48:38;;;;;;;;;;;;;;;-0.72;100.00;95206.72;5031391;28;20119;-73
2024/01/15 09:51:05;;;;;;;;;;;;;;;-0.70;100.00;95204.78;5050438;28;20037;-73
2024/01/15 09:53:32;;;;;;;;;;;;;;;-0.66;100.00;95201.66;5067263;28;19935;-73
2024/01/15 09:55:58;;;;;;;;;;;;;;;-0.60;100.00;95200.16;5067259;28;19950;-73
2024/01/15 09:58:24;;;;;;;;;;;;;;;-0.59;100.00;95196.59;5067738;28;20241;-78
2024/01/15 10:00:50;;;;;;;;;;;;;;;-0.56;100.00;95192.88;5049864;28;20001;-73
2024/01/15 10:03:16;;;;;;;;;;;;;;;-0.56;100.00;95173.06;5067099;28;19939;-78
2024/01/15 10:05:43;;;;;;;;;;;;;;;-0.56;100.00;95169.72;5033590;28;19935;-78
2024/01/15 10:08:10;;;;;;;;;;;;;;;-0.58;100.00;95184.53;5032656;28;20272;-79
2024/01/15 10:10:36;;;;;;;;;;;;;;;-0.60;100.00;95174.41;5032630;28;19951;-79
2024/01/15 10:13:04;;;;;;;;;;;;;;;-0.61;100.00;95172.78;5049769;28;20114;-78
2024/01/15 10:15:33;;;;;;;;;;;;;;;-0.60;100.00;95171.84;5033242;28;20000;-79
2024/01/15 10:17:59;;;;;;;;;;;;;;;-0.58;100.00;95174.22;5032306;28;20034;-73
2024/01/15 10:20:25;;;;;;;;;;;;;;;-0.55;100.00;95168.72;5049184;28;20085;-74
2024/01/15 10:22:51;;;;;;;;;;;;;;;-0.51;100.00;95185.41;5049087;28;20215;-73
2024/01/15 10:25:22;;;;;;;;;;;;;;;-0.47;100.00;95178.91;5066032;28;19966;-73
2024/01/15 10:27:58;;;;;;;;;;;;;;;-0.44;100.00;95163.13;5049805;28;19944;-73
2024/01/15 10:30:24;;;;;;;;;;;;;;;-0.42;100.00;95166.28;5067165;28;19935;-74
2024/01/15 10:32:57;;;;;;;;;;;;;;;-0.39;100.00;95180.59;5066607;28;20127;-74
2024/01/15 10:35:26;;;;;;;;;;;;;;;-0.38;100.00;95177.03;5067243;28;19952;-74
2024/01/15 10:37:51;;;;;;;;;;;;;;;-0.39;100.00;95180.59;5048708;28;19937;-79
2024/01/15 10:40:18;;;;;;;;;;;;;;;-0.35;100.00;95179.25;5066416;28;19966;-73
2024/01/15 10:42:44;;;;;;;;;;;;;;;-0.34;100.00;95186.00;5066384;28;19933;-73
2024/01/15 10:45:10;;;;;;;;;;;;;;;-0.25;100.00;95183.13;5048935;28;20153;-73
2024/01/15 10:47:36;;;;;;;;;;;;;;;-0.23;100.00;95162.34;5048554;28;19934;-73
2024/01/15 10:50:03;;;;;;;;;;;;;;;-0.23;100.00;95170.88;5049152;28;19932;-73
2024/01/15 10:52:29;;;;;;;;;;;;;;;-0.26;100.00;95154.97;5066702;28;20224;-74
2024/01/15 10:54:55;;;;;;;;;;;;;;;-0.22;100.00;95230.91;5048222;28;19958;-75
2024/01/15 10:57:22;;;;;;;;;;;;;;;0.43;100.00;95218.13;5031756;28;19946;-79
2024/01/15 10:59:48;;;;;;;;;;;;;;;0.68;100.00;95120.50;5031705;28;19945;-79
2024/01/15 11:02:14;;;;;;;;;;;;;;;0.62;100.00;95113.50;5032234;28;20012;-79
2024/01/15 11:04:40;;;;;;;;;;;;;;;0.44;100.00;95122.50;5048928;28;20203;-79
2024/01/15 11:07:06;;;;;;;;;;;;;;;0.25;100.00;95129.09;5048274;28;19979;-78
2024/01/15 11:09:32;;;;;;;;;;;;;;;0.14;100.00;95145.06;5048222;28;19950;-79
2024/01/15 11:12:09;;;;;;;;;;;;;;;-0.03;100.00;95129.84;5031388;28;20284;-74
2024/01/15 11:14:38;;;;;;;;;;;;;;;-0.13;100.00;95131.13;5065741;28;19954;-77
2024/01/15 11:17:05;;;;;;;;;;;;;;;-0.19;100.00;95142.16;5065546;28;19962;-78
2024/01/15 11:19:57;;;;;;;;;;;;;;;-0.22;100.00;95144.13;5031427;28;20113;-76
2024/01/15 11:22:29;;;;;;;;;;;;;;;-0.25;100.00;95147.06;5043243;28;19945;-77
2024/01/15 11:24:55;;;;;;;;;;;;;;;-0.29;100.00;95145.06;5048511;28;20120;-77
2024/01/15 11:27:40;;;;;;;;;;;;;;;-0.32;100.00;95158.28;5047817;28;19937;-77
2024/01/15 11:30:08;;;;;;;;;;;;;;;-0.35;100.00;95159.44;5048303;28;19941;-77
2024/01/15 11:32:35;;;;;;;;;;;;;;;-0.37;100.00;95155.47;5066212;28;19940;-73
2024/01/15 11:35:02;;;;;;;;;;;;;;;-0.39;100.00;95163.34;5066109;28;19951;-75
2024/01/15 11:37:49;;;;;;;;;;;;;;;-0.42;100.00;95172.25;5065321;28;19934;-75
2024/01/15 11:40:17;;;;;;;;;;;;;;;-0.42;100.00;95174.84;5047444;28;19990;-74
2024/01/15 11:42:44;;;;;;;;;;;;;;;-0.40;100.00;95192.66;5048174;28;19938;-75
2024/01/15 11:45:10;;;;;;;;;;;;;;;-0.40;100.00;95195.22;5030912;28;19940;-74
2024/01/15 11:47:51;;;;;;;;;;;;;;;-0.39;100.00;95201.19;5030848;28;19941;-74
2024/01/15 11:50:17;;;;;;;;;;;;;;;-0.43;100.00;95188.66;5030824;28;19947;-76
2024/01/15 11:52:50;;;;;;;;;;;;;;;-0.43;100.00;95196.41;5047313;28;19945;-73
2024/01/15 11:55:16;;;;;;;;;;;;;;;-0.45;100.00;95198.34;5031355;28;20128;-72
2024/01/15 11:57:45;;;;;;;;;;;;;;;-0.43;100.00;95209.28;5065648;28;20011;-72
2024/01/15 12:00:12;;;;;;;;;;;;;;;-0.42;100.00;95216.03;5064910;28;20123;-73
2024/01/15 12:02:41;;;;;;;;;;;;;;;-0.40;100.00;95215.84;5065690;28;20228;-73
2024/01/15 12:05:12;;;;;;;;;;;;;;;-0.41;100.00;95207.31;5065349;28;20209;-73
2024/01/15 12:07:41;;;;;;;;;;;;;;;-0.44;100.00;95214.63;5064746;28;19948;-74
2024/01/15 12:10:11;;;;;;;;;;;;;;;-0.47;100.00;95208.03;5047750;28;19960;-74
2024/01/15 12:12:43;;;;;;;;;;;;;;;-0.51;100.00;95204.22;5029467;28;19944;-74
2024/01/15 12:15:10;;;;;;;;;;;;;;;-0.50;100.00;95202.47;5064567;28;19957;-73
2024/01/15 12:17:36;;;;;;;;;;;;;;;-0.52;100.00;95212.94;5064730;28;19964;-74
2024/01/15 12:20:03;;;;;;;;;;;;;;;-0.57;100.00;95207.50;5030349;28;20247;-73
2024/01/15 12:22:29;;;;;;;;;;;;;;;-0.58;100.00;95208.50;5064382;28;19940;-74
2024/01/15 12:24:55;;;;;;;;;;;;;;;-0.58;100.00;95205.13;5064847;28;19943;-73
2024/01/15 12:27:21;;;;;;;;;;;;;;;-0.58;100.00;95208.50;5064718;28;19967;-76
2024/01/15 12:29:47;;;;;;;;;;;;;;;-0.55;100.00;95200.41;5046746;28;20183;-74
2024/01/15 12:32:12;;;;;;;;;;;;;;;-0.52;100.00;95202.63;5030987;28;19931;-73
2024/01/15 12:34:38;;;;;;;;;;;;;;;-0.48;100.00;95200.50;5064243;28;20180;-74